Flight Track Log - Related Links

Times and Time Zones

All times are in EDT time to prevent confusion due to time zone crossing. See the UAL3589 flight status page for this flight to view local times or setup timezone preferences in your user account.

Time Position Orientation Groundspeed Altitude Reporting Facility
EDT Latitude Longitude Course Direction KTS MPH feet Rate Location/Type
Mon 09:19:05 AM 42.6922 -73.8131 211° Southwest 165 190 2,000  Level Boston Center
Mon 09:19:11 AM 42.6858 -73.8183 211° Southwest 175 201 2,100 1,164 Climbing Boston Center
Mon 09:20:12 AM 42.6500 -73.8656 224° Southwest 193 222 3,300 1,190 Climbing Boston Center
Mon 09:21:12 AM 42.6117 -73.9128 222° Southwest 190 219 4,500 1,190 Climbing Boston Center
Mon 09:22:13 AM 42.5633 -73.9425 204° Southwest 189 217 5,700 1,131 Climbing Boston Center
Mon 09:23:14 AM 42.5150 -73.9753 207° Southwest 193 222 6,800 1,145 Climbing Boston Center
Mon 09:24:03 AM 42.4750 -74.0053 209° Southwest 200 230 7,800 1,279 Climbing Boston Center
Mon 09:24:15 AM 42.4686 -74.0133 223° Southwest 197 227 8,100 1,300 Climbing Boston Center
Mon 09:25:03 AM 42.4289 -74.0378 204° Southwest 200 230 9,100 1,046 Climbing Boston Center
Mon 09:26:04 AM 42.3825 -74.0731 209° Southwest 200 230 10,000 458 Climbing Boston Center
Mon 09:27:01 AM 42.3256 -74.1194 211° Southwest 227 261 10,000  Level Boston Center
Mon 09:28:02 AM 42.2644 -74.1625 208° Southwest 251 289 10,000  Level Boston Center
Mon 09:29:02 AM 42.1969 -74.2142 210° Southwest 269 310 10,000  Level Boston Center
Mon 09:30:02 AM 42.1294 -74.2597 207° Southwest 269 310 10,000  Level Boston Center
Mon 09:31:03 AM 42.0642 -74.2969 203° Southwest 262 302 10,000  Level Boston Center
Mon 09:32:01 AM 41.9928 -74.3283 198° South 262 302 10,000  Level Boston Center
Mon 09:33:01 AM 41.9236 -74.3597 199° South 267 307 10,000  Level Boston Center
Mon 09:34:02 AM 41.8542 -74.3911 199° South 267 307 10,000  Level Boston Center
Mon 09:35:02 AM 41.7850 -74.4197 197° South 272 313 10,000 -198 Level Boston Center
Mon 09:36:03 AM 41.7156 -74.4564 202° Southwest 267 307 9,600 -908 Descending Boston Center
Mon 09:37:01 AM 41.6419 -74.4875 198° South 279 321 8,200 -1,271 Descending Boston Center
Mon 09:38:01 AM 41.5706 -74.5211 199° South 279 321 7,100 -639 Descending Boston Center
Mon 09:39:03 AM 41.4992 -74.5522 198° South 274 315 6,900 -429 Descending Boston Center
Mon 09:40:35 AM 41.3833 -74.6000 197° South 272 313 6,000 -355 Descending New York TRACON
Mon 09:41:35 AM 41.3167 -74.6000 180° South 260 299 6,000  Level New York TRACON
Mon 09:42:35 AM 41.2500 -74.5833 169° South 257 296 6,000  Level New York TRACON
Mon 09:43:35 AM 41.1667 -74.5833 180° South 253 291 6,000  Level New York TRACON
Mon 09:44:35 AM 41.1000 -74.5667 169° South 254 292 6,000  Level New York TRACON
Mon 09:45:35 AM 41.0333 -74.5667 180° South 253 291 6,000  Level New York TRACON
Mon 09:46:35 AM 40.9667 -74.5667 180° South 259 298 6,000  Level New York TRACON
Mon 09:47:35 AM 40.9167 -74.6333 225° Southwest 250 288 6,000  Level New York TRACON
Mon 09:48:35 AM 40.8667 -74.6833 217° Southwest 250 288 6,000  Level New York TRACON
Mon 09:49:35 AM 40.8000 -74.6833 180° South 254 292 6,000 -150 Level New York TRACON
Mon 09:50:35 AM 40.7333 -74.6333 150° Southeast 255 293 5,700 -500 Descending New York TRACON
Mon 09:51:35 AM 40.6667 -74.5833 150° Southeast 263 303 5,000 -350 Descending New York TRACON
Mon 09:52:35 AM 40.6167 -74.5167 135° Southeast 260 299 5,000  Level New York TRACON
Mon 09:53:35 AM 40.5667 -74.4667 143° Southeast 255 293 5,000 -400 Level New York TRACON
Mon 09:54:35 AM 40.5333 -74.4000 123° Southeast 222 255 4,200 -950 Descending New York TRACON
Mon 09:55:35 AM 40.5333 -74.3167 90° East 215 247 3,100 -650 Descending New York TRACON
Mon 09:56:35 AM 40.5500 -74.2500 72° East 209 241 2,900 -632 Descending New York TRACON
Mon 09:57:29 AM 40.6000 -74.2333 14° North 199 229 1,900 -1,053 Descending New York TRACON
Mon 09:58:29 AM 40.6333 -74.2000 37° Northeast 165 190 900 -1,000 Descending New York TRACON
Mon 10:00:00 AM 40.6833 -74.1667 37° Northeast  Level FlightAware Approximate
Mon 10:07:00 AM 40.6925 -74.1687 37° Northeast  Level Estimated

Login

Don't have an account? Register now (free) for customized features, flight alerts, and more!